.
WxDataArchive / Data Records for 2007-06-07
2007-06-06 June 2007 2007-06-08

Data Records for Thursday, 07 June 2007

Time	Temp	Chill	HIndex	Humid	Dewpt	 Wind 	HiWind	WindDir	Rain 	Barom 
-----	----	-----	------	-----	-----	------	------	-------	-----	----- 
00:00	61.8	61.8	61.8	70	51.9	0	0	---	0.00	29.796 
00:05	61.5	61.5	61.5	70	51.6	0	0	---	0.00	29.793 
00:10	61.3	61.3	61.3	71	51.8	0	0	---	0.00	29.793 
00:15	61.2	61.2	61.2	71	51.7	0	0	---	0.00	29.790 
00:20	61.3	61.3	61.3	69	51.0	0	1	112	0.00	29.788 
00:25	61.6	61.6	61.6	69	51.3	0	0	---	0.00	29.783 
00:30	61.8	61.8	61.8	69	51.5	0	1	112	0.00	29.782 
00:35	62.1	62.1	62.1	68	51.4	0	1	112	0.00	29.782 
00:40	62.3	62.3	62.3	68	51.6	0	1	112	0.00	29.781 
00:45	62.4	62.4	62.4	68	51.7	0	1	112	0.00	29.781 
00:50	62.6	62.6	62.6	68	51.9	0	1	112	0.00	29.779 
00:55	62.7	62.7	62.7	68	52.0	0	1	112	0.00	29.778 
01:00	62.7	62.7	62.7	68	52.0	0	1	112	0.00	29.775 
01:05	62.7	62.7	62.7	69	52.4	0	0	---	0.00	29.767 
01:10	62.7	62.7	62.7	69	52.4	0	1	112	0.00	29.766 
01:15	62.7	62.7	62.7	69	52.4	0	1	112	0.00	29.763 
01:20	62.9	62.9	62.9	69	52.6	0	1	112	0.00	29.760 
01:25	62.9	62.9	62.9	69	52.6	0	2	112	0.00	29.754 
01:30	63.1	63.1	63.1	69	52.8	0	1	112	0.00	29.749 
01:35	63.2	63.2	63.2	69	52.9	0	2	112	0.00	29.747 
01:40	63.5	63.5	63.5	68	52.7	1	4	112	0.00	29.746 
01:45	64.0	64.0	64.0	67	52.8	1	3	90	0.00	29.745 
01:50	64.3	64.3	64.3	67	53.1	1	2	90	0.00	29.744 
01:55	64.5	64.5	64.5	67	53.3	1	2	90	0.00	29.741 
02:00	64.8	64.8	64.8	66	53.2	1	3	90	0.00	29.740 
02:05	65.2	65.2	65.2	66	53.5	1	4	90	0.00	29.735 
02:10	65.5	65.5	65.5	65	53.4	1	4	112	0.00	29.729 
02:15	65.6	65.6	65.6	65	53.5	1	4	135	0.00	29.727 
02:20	65.8	65.8	65.8	65	53.7	1	6	112	0.00	29.725 
02:25	66.1	66.1	66.1	64	53.6	2	7	90	0.00	29.721 
02:30	66.1	66.1	66.1	64	53.6	1	3	90	0.00	29.716 
02:35	66.1	66.1	66.1	64	53.6	2	4	90	0.00	29.714 
02:40	66.3	66.3	66.3	64	53.7	1	4	112	0.00	29.717 
02:45	66.3	66.3	66.3	64	53.7	1	4	112	0.00	29.722 
02:50	66.4	66.4	66.4	64	53.8	1	4	112	0.00	29.721 
02:55	66.3	66.3	66.3	64	53.7	1	4	90	0.00	29.718 
03:00	66.4	66.4	66.4	64	53.8	1	4	90	0.00	29.716 
03:05	66.4	66.4	66.4	64	53.8	1	3	90	0.00	29.716 
03:10	66.4	66.4	66.4	63	53.4	1	4	90	0.00	29.715 
03:15	66.6	66.6	66.6	63	53.6	1	6	112	0.00	29.713 
03:20	66.8	66.8	66.8	63	53.8	1	5	112	0.00	29.713 
03:25	66.6	66.6	66.6	63	53.6	1	4	90	0.00	29.714 
03:30	66.6	66.6	66.6	63	53.6	1	3	90	0.00	29.720 
03:35	66.6	66.6	66.6	63	53.6	1	3	90	0.00	29.722 
03:40	66.6	66.6	66.6	63	53.6	0	2	68	0.00	29.723 
03:45	66.6	66.6	66.6	63	53.6	0	2	68	0.00	29.724 
03:50	66.4	66.4	66.4	63	53.4	1	4	90	0.00	29.724 
03:55	66.6	66.6	66.6	62	53.2	1	3	90	0.00	29.724 
04:00	66.6	66.6	66.6	62	53.2	1	5	90	0.00	29.725 
04:05	66.8	66.8	66.8	62	53.4	1	4	90	0.00	29.725 
04:10	66.6	66.6	66.6	62	53.2	1	2	90	0.00	29.726 
04:15	66.6	66.6	66.6	63	53.6	1	3	90	0.00	29.726 
04:20	66.4	66.4	66.4	62	53.0	1	4	112	0.00	29.726 
04:25	66.6	66.6	66.6	62	53.2	1	5	112	0.00	29.728 
04:30	66.6	66.6	66.6	62	53.2	1	3	112	0.00	29.729 
04:35	66.4	66.4	66.4	62	53.0	1	3	90	0.00	29.731 
04:40	66.4	66.4	66.4	62	53.0	1	3	112	0.00	29.731 
04:45	66.4	66.4	66.4	62	53.0	0	2	112	0.00	29.735 
04:50	66.4	66.4	66.4	63	53.4	1	3	112	0.00	29.736 
04:55	66.4	66.4	66.4	63	53.4	0	2	112	0.00	29.738 
05:00	66.4	66.4	66.4	63	53.4	1	3	112	0.00	29.738 
05:05	66.3	66.3	66.3	63	53.3	1	2	112	0.00	29.741 
05:10	66.3	66.3	66.3	63	53.3	0	3	112	0.00	29.741 
05:15	66.3	66.3	66.3	63	53.3	1	4	90	0.00	29.739 
05:20	66.4	66.4	66.4	63	53.4	0	3	135	0.00	29.739 
05:25	66.6	66.6	66.6	63	53.6	1	4	112	0.00	29.739 
05:30	66.6	66.6	66.6	63	53.6	1	2	112	0.00	29.739 
05:35	66.8	66.8	66.8	63	53.8	1	2	135	0.00	29.741 
05:40	66.8	66.8	66.8	63	53.8	0	2	112	0.00	29.742 
05:45	67.1	67.1	67.1	63	54.1	1	2	112	0.00	29.743 
05:50	67.3	67.3	67.3	63	54.3	1	4	112	0.00	29.743 
05:55	67.4	67.4	67.4	63	54.4	1	2	135	0.00	29.744 
06:00	67.6	67.6	67.6	63	54.5	1	4	112	0.00	29.743 
06:05	67.9	67.9	67.9	63	54.8	1	4	112	0.00	29.746 
06:10	68.3	68.3	68.3	62	54.8	1	4	112	0.00	29.747 
06:15	68.6	68.6	68.6	62	55.0	2	7	90	0.00	29.745 
06:20	69.1	69.1	69.1	62	55.5	1	6	135	0.00	29.744 
06:25	69.4	69.4	69.4	61	55.4	3	6	112	0.00	29.744 
06:30	69.9	69.9	69.9	60	55.4	2	6	45	0.00	29.742 
06:35	70.1	70.1	70.1	61	56.0	2	7	112	0.00	29.742 
06:40	70.3	70.3	70.3	60	55.7	2	6	90	0.00	29.742 
06:45	70.8	70.8	70.8	61	56.7	2	6	112	0.00	29.743 
06:50	71.1	71.1	71.1	60	56.5	2	7	90	0.00	29.742 
06:55	71.6	71.6	71.6	58	56.0	2	7	112	0.00	29.742 
07:00	72.0	72.0	72.0	58	56.4	3	6	112	0.00	29.740 
07:05	72.3	72.3	72.3	59	57.2	2	7	90	0.00	29.741 
07:10	72.5	72.5	72.5	58	56.9	3	9	112	0.00	29.740 
07:15	72.7	72.7	72.7	60	58.0	2	6	112	0.00	29.740 
07:20	72.8	72.8	72.8	58	57.1	2	4	68	0.00	29.739 
07:25	72.8	72.8	72.8	59	57.6	2	7	90	0.00	29.739 
07:30	73.0	73.0	73.0	58	57.3	2	6	112	0.00	29.739 
07:35	73.5	73.5	73.5	57	57.3	1	4	112	0.00	29.736 
07:40	74.0	74.0	74.0	57	57.8	2	5	68	0.00	29.736 
07:45	74.7	74.7	74.7	57	58.4	1	5	90	0.00	29.733 
07:50	75.1	75.1	77.6	55	57.8	2	5	90	0.00	29.734 
07:55	75.6	75.6	77.8	55	58.3	2	4	90	0.00	29.734 
08:00	76.1	76.1	78.1	52	57.2	2	8	90	0.00	29.734 
08:05	76.7	76.7	78.5	53	58.3	1	4	90	0.00	29.736 
08:10	77.2	77.2	78.8	53	58.7	1	6	90	0.00	29.737 
08:15	77.7	77.7	79.1	51	58.1	2	5	112	0.00	29.736 
08:20	78.1	78.1	79.4	51	58.5	3	6	90	0.00	29.733 
08:25	78.3	78.3	79.4	50	58.1	2	6	338	0.00	29.732 
08:30	78.6	78.6	79.5	48	57.2	2	5	112	0.00	29.726 
08:35	79.0	79.0	79.8	48	57.6	3	9	90	0.00	29.723 
08:40	79.0	79.0	79.9	49	58.2	3	7	90	0.00	29.725 
08:45	79.2	79.2	80.1	50	58.9	2	11	90	0.00	29.722 
08:50	79.4	79.4	80.3	50	59.1	2	11	270	0.00	29.722 
08:55	79.8	79.8	80.3	46	57.2	2	7	225	0.00	29.722 
09:00	80.1	80.1	80.8	49	59.2	2	4	112	0.00	29.720 
09:05	80.3	80.3	81.2	51	60.5	2	11	270	0.00	29.721 
09:10	80.7	80.7	81.4	50	60.3	2	6	90	0.00	29.721 
09:15	81.1	81.1	81.6	48	59.5	2	6	68	0.00	29.718 
09:20	81.2	81.2	81.7	48	59.6	2	5	90	0.00	29.714 
09:25	81.4	81.4	81.8	47	59.2	2	5	248	0.00	29.712 
09:30	81.8	81.8	82.1	47	59.6	3	7	270	0.00	29.709 
09:35	82.0	82.0	82.2	46	59.1	3	9	248	0.00	29.712 
09:40	82.4	82.4	82.5	45	58.9	3	10	292	0.00	29.706 
09:45	82.6	82.6	82.7	45	59.1	3	7	270	0.00	29.707 
09:50	82.8	82.8	83.0	46	59.9	3	7	292	0.00	29.706 
09:55	83.2	83.2	83.1	44	59.0	3	12	248	0.00	29.705 
10:00	83.6	83.6	83.4	43	58.7	3	9	90	0.00	29.703 
10:05	84.1	84.1	84.1	44	59.8	3	10	270	0.00	29.701 
10:10	84.5	84.5	84.9	46	61.4	2	6	270	0.00	29.699 
10:15	85.1	85.1	84.6	41	58.7	3	7	270	0.00	29.698 
10:20	85.1	85.1	85.0	43	60.1	4	11	248	0.00	29.699 
10:25	85.1	85.1	84.6	41	58.7	4	10	270	0.00	29.696 
10:30	85.3	85.3	85.2	43	60.2	3	6	270	0.00	29.693 
10:35	85.7	85.7	85.7	43	60.6	3	7	270	0.00	29.690 
10:40	85.9	85.9	85.3	40	58.7	4	16	270	0.00	29.687 
10:45	85.7	85.7	85.5	42	59.9	4	14	270	0.00	29.686 
10:50	85.9	85.9	86.0	43	60.8	4	12	248	0.00	29.686 
10:55	86.3	86.3	86.0	41	59.8	5	12	270	0.00	29.685 
11:00	86.3	86.3	86.0	41	59.8	4	11	248	0.00	29.683 
11:05	86.5	86.5	86.0	40	59.3	5	11	270	0.00	29.686 
11:10	86.7	86.7	86.5	41	60.1	4	11	248	0.00	29.682 
11:15	87.2	87.2	87.1	41	60.6	5	12	248	0.00	29.682 
11:20	87.2	87.2	86.9	40	59.9	6	12	270	0.00	29.683 
11:25	87.6	87.6	87.6	41	60.9	4	10	270	0.00	29.676 
11:30	88.0	88.0	88.5	42	62.0	4	9	270	0.00	29.672 
11:35	87.6	87.6	86.9	38	58.8	7	17	270	0.00	29.671 
11:40	87.6	87.6	86.9	38	58.8	6	17	270	0.00	29.670 
11:45	88.0	88.0	87.4	38	59.2	5	13	270	0.00	29.671 
11:50	88.4	88.4	88.2	39	60.3	4	13	270	0.00	29.670 
11:55	88.6	88.6	88.2	38	59.7	5	14	270	0.00	29.670 
12:00	88.6	88.6	87.9	37	59.0	5	13	270	0.00	29.666 
12:05	88.8	88.8	88.1	37	59.1	3	10	270	0.00	29.657 
12:10	89.0	89.0	88.1	36	58.5	4	11	270	0.00	29.653 
12:15	89.0	89.0	88.1	36	58.5	4	12	90	0.00	29.654 
12:20	89.0	89.0	88.1	36	58.5	4	11	270	0.00	29.654 
12:25	89.5	89.5	88.5	35	58.2	5	13	270	0.00	29.653 
12:30	89.7	89.7	88.8	35	58.4	4	12	270	0.00	29.654 
12:35	89.9	89.9	89.0	35	58.5	4	12	270	0.00	29.654 
12:40	89.9	89.9	88.8	34	57.7	5	14	248	0.00	29.653 
12:45	89.7	89.7	89.0	36	59.2	5	13	270	0.00	29.653 
12:50	89.9	89.9	89.3	36	59.3	4	10	270	0.00	29.652 
12:55	89.9	89.9	89.3	36	59.3	5	11	270	0.00	29.645 
13:00	90.1	90.1	89.6	36	59.5	4	11	270	0.00	29.642 
13:05	90.1	90.1	89.6	36	59.5	5	14	270	0.00	29.636 
13:10	89.9	89.9	89.0	35	58.5	6	13	270	0.00	29.637 
13:15	90.1	90.1	89.0	34	57.9	5	12	270	0.00	29.636 
13:20	90.3	90.3	89.6	35	58.9	5	17	270	0.00	29.635 
13:25	90.5	90.5	90.4	37	60.6	4	10	270	0.00	29.633 
13:30	90.5	90.5	91.1	39	62.1	5	13	270	0.00	29.631 
13:35	90.3	90.3	89.6	35	58.9	7	17	270	0.00	29.634 
13:40	90.5	90.5	89.8	35	59.1	4	12	270	0.00	29.630 
13:45	90.7	90.7	90.7	37	60.8	5	12	270	0.00	29.627 
13:50	90.7	90.7	89.8	34	58.4	5	15	292	0.00	29.628 
13:55	91.0	91.0	90.2	34	58.7	4	15	270	0.00	29.627 
14:00	90.7	90.7	90.1	35	59.2	5	14	270	0.00	29.628 
14:05	91.0	91.0	90.2	34	58.7	5	17	270	0.00	29.626 
14:10	91.2	91.2	90.8	35	59.7	5	13	270	0.00	29.626 
14:15	91.2	91.2	90.2	33	58.0	6	14	270	0.00	29.634 
14:20	91.0	91.0	90.2	34	58.7	7	16	270	0.00	29.630 
14:25	91.2	91.2	91.4	37	61.2	4	9	270	0.00	29.624 
14:30	91.8	91.8	92.7	38	62.5	3	10	270	0.00	29.619 
14:35	91.8	91.8	91.3	34	59.4	5	12	270	0.00	29.618 
14:40	91.8	91.8	91.3	34	59.4	4	10	270	0.00	29.617 
14:45	91.6	91.6	91.3	35	60.0	5	13	270	0.00	29.617 
14:50	91.4	91.4	91.4	36	60.6	4	13	270	0.00	29.619 
14:55	91.2	91.2	90.8	35	59.7	4	13	270	0.00	29.619 
15:00	91.4	91.4	91.4	36	60.6	4	9	270	0.00	29.618 
15:05	91.2	91.2	91.1	36	60.5	5	16	270	0.00	29.619 
15:10	91.0	91.0	90.5	35	59.5	4	14	270	0.00	29.618 
15:15	91.2	91.2	91.4	37	61.2	5	12	270	0.00	29.617 
15:20	91.4	91.4	91.0	35	59.8	4	10	270	0.00	29.617 
15:25	91.6	91.6	91.0	34	59.2	5	15	270	0.00	29.614 
15:30	91.4	91.4	91.4	36	60.6	5	12	270	0.00	29.615 
15:35	91.6	91.6	91.3	35	60.0	4	15	270	0.00	29.615 
15:40	91.4	91.4	91.0	35	59.8	5	13	270	0.00	29.614 
15:45	91.0	91.0	90.5	35	59.5	4	15	270	0.00	29.606 
15:50	91.0	91.0	90.5	35	59.5	5	13	248	0.00	29.607 
15:55	91.2	91.2	91.4	37	61.2	3	11	270	0.00	29.603 
16:00	91.2	91.2	91.4	37	61.2	3	12	248	0.00	29.601 
16:05	90.7	90.7	90.1	35	59.2	5	12	248	0.00	29.603 
16:10	90.7	90.7	90.4	36	60.0	4	15	270	0.00	29.603 
16:15	90.5	90.5	90.7	38	61.4	5	15	270	0.00	29.603 
16:20	90.5	90.5	90.4	37	60.6	4	11	90	0.00	29.601 
16:25	90.7	90.7	90.7	37	60.8	5	14	270	0.00	29.601 
16:30	90.5	90.5	90.1	36	59.9	4	13	292	0.00	29.603 
16:35	90.3	90.3	90.1	37	60.4	4	13	270	0.00	29.603 
16:40	90.3	90.3	90.8	39	61.9	4	12	270	0.00	29.602 
16:45	90.1	90.1	89.9	37	60.3	4	12	270	0.00	29.600 
16:50	90.1	90.1	89.9	37	60.3	4	21	248	0.00	29.602 
16:55	89.7	89.7	89.6	38	60.7	4	10	68	0.00	29.599 
17:00	89.7	89.7	89.3	37	59.9	5	15	270	0.00	29.599 
17:05	89.7	89.7	89.6	38	60.7	4	12	68	0.00	29.593 
17:10	89.7	89.7	89.6	38	60.7	3	10	270	0.00	29.591 
17:15	89.7	89.7	89.6	38	60.7	3	13	270	0.00	29.595 
17:20	89.5	89.5	89.6	39	61.2	2	5	292	0.00	29.590 
17:25	89.3	89.3	89.1	38	60.3	4	15	270	0.00	29.590 
17:30	89.3	89.3	89.4	39	61.0	5	14	248	0.00	29.588 
17:35	88.8	88.8	88.7	39	60.6	5	13	90	0.00	29.592 
17:40	88.8	88.8	89.0	40	61.3	2	10	270	0.00	29.594 
17:45	88.8	88.8	89.0	40	61.3	3	11	270	0.00	29.589 
17:50	88.8	88.8	89.0	40	61.3	4	11	270	0.00	29.588 
17:55	88.8	88.8	88.7	39	60.6	3	11	248	0.00	29.588 
18:00	88.8	88.8	89.0	40	61.3	4	13	270	0.00	29.587 
18:05	88.6	88.6	89.3	42	62.5	3	7	248	0.00	29.586 
18:10	88.4	88.4	89.0	42	62.3	4	14	270	0.00	29.585 
18:15	88.2	88.2	89.0	43	62.8	3	11	270	0.00	29.592 
18:20	88.0	88.0	88.5	42	62.0	2	6	270	0.00	29.591 
18:25	87.8	87.8	88.2	42	61.8	3	9	270	0.00	29.589 
18:30	87.8	87.8	88.5	43	62.5	3	10	248	0.00	29.593 
18:35	87.8	87.8	88.5	43	62.5	2	5	270	0.00	29.596 
18:40	87.6	87.6	88.2	43	62.3	3	12	270	0.00	29.599 
18:45	87.4	87.4	87.9	43	62.1	3	9	248	0.00	29.591 
18:50	87.2	87.2	87.6	43	61.9	2	8	248	0.00	29.590 
18:55	87.0	87.0	87.6	44	62.4	3	7	270	0.00	29.596 
19:00	87.0	87.0	87.6	44	62.4	2	10	248	0.00	29.599 
19:05	86.5	86.5	87.2	45	62.6	2	6	270	0.00	29.597 
19:10	86.5	86.5	87.2	45	62.6	3	10	248	0.00	29.597 
19:15	86.3	86.3	86.7	44	61.8	3	9	248	0.00	29.599 
19:20	86.5	86.5	87.2	45	62.6	3	11	270	0.00	29.599 
19:25	86.5	86.5	87.2	45	62.6	3	10	248	0.00	29.602 
19:30	86.1	86.1	87.0	46	62.9	2	5	270	0.00	29.602 
19:35	85.9	85.9	86.7	46	62.7	4	14	270	0.00	29.601 
19:40	85.9	85.9	86.7	46	62.7	4	11	270	0.00	29.604 
19:45	85.9	85.9	86.7	46	62.7	4	10	270	0.00	29.611 
19:50	85.5	85.5	86.4	47	62.9	3	11	248	0.00	29.612 
19:55	85.3	85.3	85.9	46	62.1	4	10	270	0.00	29.615 
20:00	85.3	85.3	85.9	46	62.1	6	16	270	0.00	29.618 
20:05	85.5	85.5	86.2	46	62.3	5	15	270	0.00	29.616 
20:10	85.3	85.3	85.9	46	62.1	3	8	270	0.00	29.620 
20:15	84.9	84.9	86.3	50	64.2	3	6	248	0.00	29.621 
20:20	84.7	84.7	85.6	48	62.8	3	11	248	0.00	29.622 
20:25	84.7	84.7	85.6	48	62.8	3	8	270	0.00	29.622 
20:30	84.3	84.3	85.3	49	63.0	2	9	248	0.00	29.618 
20:35	84.0	84.0	84.9	49	62.8	2	7	292	0.00	29.619 
20:40	83.8	83.8	84.9	50	63.1	2	9	292	0.00	29.621 
20:45	83.8	83.8	84.9	50	63.1	3	10	270	0.00	29.625 
20:50	84.0	84.0	85.1	50	63.3	2	8	248	0.00	29.627 
20:55	83.8	83.8	84.9	50	63.1	2	7	248	0.00	29.628 
21:00	83.6	83.6	84.6	50	63.0	2	7	248	0.00	29.630 
21:05	83.6	83.6	84.6	50	63.0	2	7	248	0.00	29.630 
21:10	83.4	83.4	84.4	50	62.8	2	9	270	0.00	29.629 
21:15	83.4	83.4	84.4	50	62.8	3	10	248	0.00	29.632 
21:20	83.2	83.2	84.1	50	62.6	3	11	248	0.00	29.628 
21:25	83.2	83.2	84.3	51	63.2	2	6	270	0.00	29.626 
21:30	83.2	83.2	84.1	50	62.6	3	7	248	0.00	29.628 
21:35	83.2	83.2	84.1	50	62.6	3	6	248	0.00	29.632 
21:40	83.0	83.0	84.1	51	63.0	2	4	248	0.00	29.644 
21:45	82.8	82.8	83.8	51	62.8	2	10	248	0.00	29.650 
21:50	82.6	82.6	83.8	52	63.2	1	4	270	0.00	29.649 
21:55	82.6	82.6	83.8	52	63.2	2	4	270	0.00	29.646 
22:00	82.2	82.2	83.5	53	63.3	2	7	248	0.00	29.645 
22:05	82.0	82.0	83.2	53	63.2	2	10	248	0.00	29.643 
22:10	82.2	82.2	83.3	52	62.8	3	6	270	0.00	29.648 
22:15	82.2	82.2	83.3	52	62.8	3	9	248	0.00	29.654 
22:20	82.2	82.2	83.3	52	62.8	3	7	270	0.00	29.658 
22:25	82.2	82.2	83.1	51	62.2	3	9	248	0.00	29.659 
22:30	82.2	82.2	83.1	51	62.2	3	7	270	0.00	29.656 
22:35	82.2	82.2	83.1	51	62.2	3	7	270	0.00	29.656 
22:40	82.2	82.2	83.1	51	62.2	3	10	270	0.00	29.650 
22:45	82.0	82.0	82.9	51	62.1	4	9	270	0.00	29.648 
22:50	82.0	82.0	82.9	51	62.1	3	7	248	0.00	29.651 
22:55	81.8	81.8	82.7	51	61.9	2	7	270	0.00	29.642 
23:00	81.6	81.6	82.5	51	61.7	2	6	270	0.00	29.645 
23:05	81.4	81.4	82.4	52	62.1	2	6	248	0.00	29.646 
23:10	81.2	81.2	82.2	52	61.9	2	10	248	0.00	29.648 
23:15	81.2	81.2	82.2	52	61.9	3	7	270	0.00	29.648 
23:20	81.2	81.2	82.2	52	61.9	3	11	270	0.00	29.644 
23:25	81.2	81.2	82.2	52	61.9	3	6	270	0.00	29.643 
23:30	81.1	81.1	82.1	52	61.8	3	6	270	0.00	29.643 
23:35	81.1	81.1	82.1	52	61.8	2	10	248	0.00	29.643 
23:40	81.1	81.1	82.1	52	61.8	4	7	270	0.00	29.640 
23:45	80.9	80.9	82.0	53	62.1	2	5	270	0.00	29.643 
23:50	80.7	80.7	81.8	53	62.0	2	7	248	0.00	29.641 
23:55	80.7	80.7	81.8	53	62.0	3	9	270	0.00	29.640 

CoCoRaHS
IN-AL-39
A2 Web Hosting
Creative Commons License
GoDaddy
Look for:

loaded 2017-12-10 21:31:33 • last modified 2010-11-18 10:43:29
Privacy PolicyDisclaimer
• wx.awcolley.com is powered by PmWiki v.2002016 •
• all content (unless otherwise noted) © 2017 A W Colley